WetterOnline ( https://www.wetteronline.de )

Wetter aktuell Walsrode

Aktuelles Wetter: Soltau (76m)

6-stündlich | Neueste Meldungen
Ortszeit Temperatur Wetter
Di, 27.09. 2:00 9.7° C leichter Regen
Mo, 26.09. 20:00 10.5° C Sprühregen
Mo, 26.09. 14:00 12.5° C leichter Regen
Mo, 26.09. 8:00 9.0° C bewölkt
Mo, 26.09. 2:00 6.2° C wolkig
So, 25.09. 20:00 10.1° C wolkenlos
So, 25.09. 14:00 12.9° C bewölkt
So, 25.09. 8:00 11.5° C bedeckt
Ortszeit Temperatur Wetter
Di, 27.09. 4:00 9.7° C leichter Regen
Di, 27.09. 3:50 9.7° C leichter Regen
Di, 27.09. 3:40 9.7° C leichter Regen
Di, 27.09. 3:30 9.7° C leichter Regen
Di, 27.09. 3:20 9.7° C leichter Regen
Di, 27.09. 3:10 9.7° C leichter Regen
Di, 27.09. 3:00 9.7° C leichter Regen
Di, 27.09. 2:30 9.7° C leichter Regen
Di, 27.09. 2:00 9.7° C leichter Regen
Di, 27.09. 1:30 9.7° C leichter Regen
Di, 27.09. 1:00 9.6° C Regen
Ortszeit Relative Feuchte Sichtweite
Di, 27.09. 2:00 96% 14 km
Mo, 26.09. 20:00 92% 30 km
Mo, 26.09. 14:00 76% 35 km
Mo, 26.09. 8:00 91% 35 km
Mo, 26.09. 2:00 98% 29 km
So, 25.09. 20:00 90% 55 km
So, 25.09. 14:00 89% 28 km
So, 25.09. 8:00 98% 10 km
Ortszeit Relative Feuchte Sichtweite
Di, 27.09. 4:00 97% 14 km
Di, 27.09. 3:50 97% -
Di, 27.09. 3:40 97% -
Di, 27.09. 3:30 97% 14 km
Di, 27.09. 3:20 97% -
Di, 27.09. 3:10 97% -
Di, 27.09. 3:00 97% 21 km
Di, 27.09. 2:30 96% 14 km
Di, 27.09. 2:00 96% 14 km
Di, 27.09. 1:30 96% 13 km
Di, 27.09. 1:00 96% 9 km
Ortszeit Niederschlagsmenge Niederschlagsart
Di, 27.09. 2:00 10 l/m2 in 6 Std. Regen
Mo, 26.09. 20:00 2 l/m2 in 12 Std. Regen
Mo, 26.09. 14:00 0.1 l/m2 in 6 Std. Regen
Mo, 26.09. 8:00 0.0 l/m2 in 12 Std. -
Mo, 26.09. 2:00 0.0 l/m2 in 6 Std. -
So, 25.09. 20:00 0.1 l/m2 in 12 Std. Regen
So, 25.09. 14:00 0.1 l/m2 in 6 Std. Regen
So, 25.09. 8:00 0.3 l/m2 in 12 Std. Regen
Ortszeit Niederschlagsmenge Niederschlagsart
Di, 27.09. 4:00 0.6 l/m2 in 1 Std. Regen
Di, 27.09. 3:50 keine Meldung -
Di, 27.09. 3:40 keine Meldung -
Di, 27.09. 3:30 0.3 l/m2 in 1 Std. -
Di, 27.09. 3:20 keine Meldung -
Di, 27.09. 3:10 keine Meldung -
Di, 27.09. 3:00 0.8 l/m2 in 1 Std. Regen
Di, 27.09. 2:30 0.5 l/m2 in 1 Std. -
Di, 27.09. 2:00 2.2 l/m2 in 1 Std. Regen
Di, 27.09. 1:30 1.2 l/m2 in 1 Std. -
Di, 27.09. 1:00 2.9 l/m2 in 1 Std. Regen
Ortszeit Stärke Spitze Richtung
km/h Bft. km/h Grad Sektor
Di, 27.09. 2:00 13 3 28 190° S
Mo, 26.09. 20:00 15 3 31 180° S
Mo, 26.09. 14:00 20 4 39 200° S
Mo, 26.09. 8:00 11 2 22 190° S
Mo, 26.09. 2:00 4 1 7 200° S
So, 25.09. 20:00 6 1 30 290° W
So, 25.09. 14:00 13 3 22 320° NW
So, 25.09. 8:00 9 2 19 320° NW
Ortszeit Stärke Spitze Richtung
km/h Bft. km/h Grad Sektor
Di, 27.09. 4:00 7 2 14 200° S
Di, 27.09. 3:50 7 2 - 200° S
Di, 27.09. 3:40 9 2 - 190° S
Di, 27.09. 3:30 11 2 14 190° S
Di, 27.09. 3:20 11 2 - 190° S
Di, 27.09. 3:10 9 2 - 180° S
Di, 27.09. 3:00 11 2 22 180° S
Di, 27.09. 2:30 13 3 19 190° S
Di, 27.09. 2:00 13 3 22 190° S
Di, 27.09. 1:30 13 3 22 190° S
Di, 27.09. 1:00 14 3 25 180° S
Ortszeit Untergrenze Bedeckung Gattung
total tief tief mittel hoch
Di, 27.09. 2:00 180 m 7/8 7/8 - - -
Mo, 26.09. 20:00 600 m 8/8 8/8 - - -
Mo, 26.09. 14:00 780 m 7/8 7/8 - - -
Mo, 26.09. 8:00 1800 m 8/8 4/8 - - -
Mo, 26.09. 2:00 2100 m 8/8 1/8 - - -
So, 25.09. 20:00 - 0/8 0/8 - - -
So, 25.09. 14:00 420 m 7/8 7/8 - - -
So, 25.09. 8:00 90 m 8/8 8/8 - - -
Ortszeit Bedeckungsgrad in Achtel und Wolkenuntergrenze
Di, 27.09. 4:00 7(120m)
Di, 27.09. 3:50 7(120m)
Di, 27.09. 3:40 7
Di, 27.09. 3:30 7(150m) 8(270m)
Di, 27.09. 3:20 7(150m) 8(270m)
Di, 27.09. 3:10 8
Di, 27.09. 3:00 8(180m)
Di, 27.09. 2:30 7(180m)
Di, 27.09. 2:00 7(180m)
Di, 27.09. 1:30 7(210m) 8(360m)
Di, 27.09. 1:00 5(210m) 6(360m) 8(510m)
Ortszeit Luftdruck NN (hPa) Tendenz (hPa in 3 Std.)
Di, 27.09. 2:00 993 - 2,0
Mo, 26.09. 20:00 997 - 2,0
Mo, 26.09. 14:00 1001 - 1,9
Mo, 26.09. 8:00 1004 - 2,3
Mo, 26.09. 2:00 1009 - 1,6
So, 25.09. 20:00 1011 - 0,6
So, 25.09. 14:00 1013 + 0,1
So, 25.09. 8:00 1012 0,0
Ortszeit Luftdruck NN (hPa) Tendenz (hPa in 3 Std.)
Di, 27.09. 4:00 992 - 1,6
Di, 27.09. 3:50 992 keine Meldung
Di, 27.09. 3:40 993 keine Meldung
Di, 27.09. 3:30 993 - 1,7
Di, 27.09. 3:20 993 keine Meldung
Di, 27.09. 3:10 993 keine Meldung
Di, 27.09. 3:00 993 - 1,9
Di, 27.09. 2:30 993 - 1,9
Di, 27.09. 2:00 993 - 2,0
Di, 27.09. 1:30 994 - 2,0
Di, 27.09. 1:00 994 - 1,9
Ortszeit Schneehöhe (cm)
Di, 27.09. 2:00 0
Mo, 26.09. 20:00 0
Mo, 26.09. 14:00 0
Mo, 26.09. 8:00 0
Mo, 26.09. 2:00 0
So, 25.09. 20:00 0
So, 25.09. 14:00 0
So, 25.09. 8:00 0
Ortszeit Schneehöhe (cm)
Di, 27.09. 4:00 0
Di, 27.09. 3:50 0
Di, 27.09. 3:40 0
Di, 27.09. 3:30 0
Di, 27.09. 3:20 0
Di, 27.09. 3:10 0
Di, 27.09. 3:00 0
Di, 27.09. 2:30 0
Di, 27.09. 2:00 0
Di, 27.09. 1:30 0
Di, 27.09. 1:00 0
Link zu dieser Seite / Seite empfehlen

Das Wetter in ...